sensor_id;sensor_type;location;lat;lon;timestamp;P1;durP1;ratioP1;P2;durP2;ratioP2
8927;SDS011;4499;48.304;11.902;2023-06-24T00:01:48;7.23;;;5.80;;
8927;SDS011;4499;48.304;11.902;2023-06-24T00:04:17;7.50;;;6.33;;
8927;SDS011;4499;48.304;11.902;2023-06-24T00:06:47;6.93;;;5.63;;
8927;SDS011;4499;48.304;11.902;2023-06-24T00:09:15;9.37;;;5.90;;
8927;SDS011;4499;48.304;11.902;2023-06-24T00:11:44;6.60;;;5.57;;
8927;SDS011;4499;48.304;11.902;2023-06-24T00:14:14;7.47;;;5.50;;
8927;SDS011;4499;48.304;11.902;2023-06-24T00:16:42;7.13;;;5.87;;
8927;SDS011;4499;48.304;11.902;2023-06-24T00:19:10;7.87;;;5.70;;
8927;SDS011;4499;48.304;11.902;2023-06-24T00:21:38;6.57;;;5.70;;
8927;SDS011;4499;48.304;11.902;2023-06-24T00:24:06;6.37;;;5.77;;
8927;SDS011;4499;48.304;11.902;2023-06-24T00:26:35;6.97;;;5.77;;
8927;SDS011;4499;48.304;11.902;2023-06-24T00:29:05;6.63;;;5.73;;
8927;SDS011;4499;48.304;11.902;2023-06-24T00:31:33;6.63;;;5.47;;
8927;SDS011;4499;48.304;11.902;2023-06-24T00:34:01;6.63;;;5.73;;
8927;SDS011;4499;48.304;11.902;2023-06-24T00:36:29;6.90;;;5.67;;
8927;SDS011;4499;48.304;11.902;2023-06-24T00:38:58;6.93;;;5.83;;
8927;SDS011;4499;48.304;11.902;2023-06-24T00:41:29;7.07;;;5.90;;
8927;SDS011;4499;48.304;11.902;2023-06-24T00:43:57;6.87;;;6.07;;
8927;SDS011;4499;48.304;11.902;2023-06-24T00:46:27;10.87;;;6.17;;
8927;SDS011;4499;48.304;11.902;2023-06-24T00:48:59;7.20;;;5.93;;
8927;SDS011;4499;48.304;11.902;2023-06-24T00:51:29;8.97;;;6.10;;
8927;SDS011;4499;48.304;11.902;2023-06-24T00:53:58;7.33;;;5.83;;
8927;SDS011;4499;48.304;11.902;2023-06-24T00:56:28;6.37;;;5.70;;
8927;SDS011;4499;48.304;11.902;2023-06-24T00:58:57;7.60;;;6.17;;
8927;SDS011;4499;48.304;11.902;2023-06-24T01:01:29;6.40;;;5.80;;
8927;SDS011;4499;48.304;11.902;2023-06-24T01:04:00;7.00;;;6.00;;
8927;SDS011;4499;48.304;11.902;2023-06-24T01:06:29;8.27;;;6.37;;
8927;SDS011;4499;48.304;11.902;2023-06-24T01:08:58;6.90;;;6.13;;
8927;SDS011;4499;48.304;11.902;2023-06-24T01:11:29;8.90;;;6.23;;
8927;SDS011;4499;48.304;11.902;2023-06-24T01:13:57;6.77;;;5.90;;
8927;SDS011;4499;48.304;11.902;2023-06-24T01:16:26;6.90;;;5.83;;
8927;SDS011;4499;48.304;11.902;2023-06-24T01:19:05;7.17;;;5.70;;
8927;SDS011;4499;48.304;11.902;2023-06-24T01:21:42;6.47;;;5.80;;
8927;SDS011;4499;48.304;11.902;2023-06-24T01:24:28;6.67;;;5.90;;
8927;SDS011;4499;48.304;11.902;2023-06-24T01:27:16;7.00;;;6.30;;
8927;SDS011;4499;48.304;11.902;2023-06-24T01:30:14;7.10;;;5.50;;
8927;SDS011;4499;48.304;11.902;2023-06-24T01:33:03;7.07;;;5.93;;
8927;SDS011;4499;48.304;11.902;2023-06-24T01:35:35;7.77;;;6.40;;
8927;SDS011;4499;48.304;11.902;2023-06-24T01:38:06;7.63;;;5.80;;
8927;SDS011;4499;48.304;11.902;2023-06-24T01:40:38;6.93;;;5.93;;
8927;SDS011;4499;48.304;11.902;2023-06-24T01:43:10;7.33;;;6.13;;
8927;SDS011;4499;48.304;11.902;2023-06-24T01:45:41;7.57;;;6.00;;
8927;SDS011;4499;48.304;11.902;2023-06-24T01:48:13;7.43;;;5.87;;
8927;SDS011;4499;48.304;11.902;2023-06-24T01:50:44;7.00;;;5.77;;
8927;SDS011;4499;48.304;11.902;2023-06-24T01:53:16;6.80;;;5.90;;
8927;SDS011;4499;48.304;11.902;2023-06-24T01:55:46;7.73;;;5.50;;
8927;SDS011;4499;48.304;11.902;2023-06-24T01:58:15;7.13;;;5.83;;
8927;SDS011;4499;48.304;11.902;2023-06-24T02:00:46;7.30;;;5.97;;
8927;SDS011;4499;48.304;11.902;2023-06-24T02:03:17;7.00;;;6.13;;
8927;SDS011;4499;48.304;11.902;2023-06-24T02:05:47;6.90;;;6.20;;
8927;SDS011;4499;48.304;11.902;2023-06-24T02:08:16;7.07;;;5.90;;
8927;SDS011;4499;48.304;11.902;2023-06-24T02:10:44;7.53;;;6.53;;
8927;SDS011;4499;48.304;11.902;2023-06-24T02:13:13;8.47;;;5.77;;
8927;SDS011;4499;48.304;11.902;2023-06-24T02:15:43;7.37;;;6.57;;
8927;SDS011;4499;48.304;11.902;2023-06-24T02:18:12;7.40;;;5.77;;
8927;SDS011;4499;48.304;11.902;2023-06-24T02:20:45;7.23;;;6.33;;
8927;SDS011;4499;48.304;11.902;2023-06-24T02:23:15;7.23;;;6.10;;
8927;SDS011;4499;48.304;11.902;2023-06-24T02:25:44;7.47;;;5.83;;
8927;SDS011;4499;48.304;11.902;2023-06-24T02:28:13;7.77;;;5.73;;
8927;SDS011;4499;48.304;11.902;2023-06-24T02:30:42;6.77;;;6.07;;
8927;SDS011;4499;48.304;11.902;2023-06-24T02:33:12;7.80;;;6.00;;
8927;SDS011;4499;48.304;11.902;2023-06-24T02:35:41;7.37;;;5.97;;
8927;SDS011;4499;48.304;11.902;2023-06-24T02:38:13;7.63;;;6.10;;
8927;SDS011;4499;48.304;11.902;2023-06-24T02:40:42;6.60;;;5.90;;
8927;SDS011;4499;48.304;11.902;2023-06-24T02:43:13;7.27;;;6.10;;
8927;SDS011;4499;48.304;11.902;2023-06-24T02:45:41;7.87;;;6.33;;
8927;SDS011;4499;48.304;11.902;2023-06-24T02:48:10;7.47;;;6.40;;
8927;SDS011;4499;48.304;11.902;2023-06-24T02:50:39;6.80;;;6.10;;
8927;SDS011;4499;48.304;11.902;2023-06-24T02:53:10;7.90;;;5.77;;
8927;SDS011;4499;48.304;11.902;2023-06-24T02:55:41;7.50;;;6.47;;
8927;SDS011;4499;48.304;11.902;2023-06-24T02:58:11;6.50;;;5.90;;
8927;SDS011;4499;48.304;11.902;2023-06-24T03:00:40;7.97;;;6.77;;
8927;SDS011;4499;48.304;11.902;2023-06-24T03:03:08;7.40;;;6.20;;
8927;SDS011;4499;48.304;11.902;2023-06-24T03:05:37;7.47;;;6.30;;
8927;SDS011;4499;48.304;11.902;2023-06-24T03:08:06;7.70;;;6.27;;
8927;SDS011;4499;48.304;11.902;2023-06-24T03:10:37;7.27;;;6.20;;
8927;SDS011;4499;48.304;11.902;2023-06-24T03:13:05;6.77;;;6.07;;
8927;SDS011;4499;48.304;11.902;2023-06-24T03:15:33;7.10;;;6.40;;
8927;SDS011;4499;48.304;11.902;2023-06-24T03:18:02;7.23;;;6.50;;
8927;SDS011;4499;48.304;11.902;2023-06-24T03:20:30;6.97;;;6.27;;
8927;SDS011;4499;48.304;11.902;2023-06-24T03:23:05;8.63;;;6.00;;
8927;SDS011;4499;48.304;11.902;2023-06-24T03:25:33;7.77;;;6.50;;
8927;SDS011;4499;48.304;11.902;2023-06-24T03:28:03;7.17;;;6.33;;
8927;SDS011;4499;48.304;11.902;2023-06-24T03:30:34;7.73;;;6.77;;
8927;SDS011;4499;48.304;11.902;2023-06-24T03:33:02;7.33;;;6.40;;
8927;SDS011;4499;48.304;11.902;2023-06-24T03:35:30;8.63;;;6.20;;
8927;SDS011;4499;48.304;11.902;2023-06-24T03:37:59;6.57;;;5.87;;
8927;SDS011;4499;48.304;11.902;2023-06-24T03:40:27;6.63;;;5.83;;
8927;SDS011;4499;48.304;11.902;2023-06-24T03:42:56;6.90;;;5.97;;
8927;SDS011;4499;48.304;11.902;2023-06-24T03:45:26;6.80;;;6.00;;
8927;SDS011;4499;48.304;11.902;2023-06-24T03:47:54;8.17;;;6.40;;
8927;SDS011;4499;48.304;11.902;2023-06-24T03:50:22;6.53;;;5.70;;
8927;SDS011;4499;48.304;11.902;2023-06-24T03:52:50;7.33;;;6.20;;
8927;SDS011;4499;48.304;11.902;2023-06-24T03:55:18;8.73;;;5.83;;
8927;SDS011;4499;48.304;11.902;2023-06-24T03:57:46;9.37;;;6.17;;
8927;SDS011;4499;48.304;11.902;2023-06-24T04:00:14;7.20;;;5.67;;
8927;SDS011;4499;48.304;11.902;2023-06-24T04:02:44;6.97;;;6.00;;
8927;SDS011;4499;48.304;11.902;2023-06-24T04:05:12;7.70;;;6.00;;
8927;SDS011;4499;48.304;11.902;2023-06-24T04:07:40;8.27;;;5.83;;
8927;SDS011;4499;48.304;11.902;2023-06-24T04:10:13;7.87;;;6.17;;
8927;SDS011;4499;48.304;11.902;2023-06-24T04:12:41;6.60;;;5.93;;
8927;SDS011;4499;48.304;11.902;2023-06-24T04:15:10;7.33;;;5.80;;
8927;SDS011;4499;48.304;11.902;2023-06-24T04:17:38;6.87;;;5.90;;
8927;SDS011;4499;48.304;11.902;2023-06-24T04:20:08;6.37;;;5.47;;
8927;SDS011;4499;48.304;11.902;2023-06-24T04:22:37;7.30;;;5.97;;
8927;SDS011;4499;48.304;11.902;2023-06-24T04:25:07;8.60;;;5.73;;
8927;SDS011;4499;48.304;11.902;2023-06-24T04:27:35;7.40;;;5.70;;
8927;SDS011;4499;48.304;11.902;2023-06-24T04:30:04;6.17;;;5.10;;
8927;SDS011;4499;48.304;11.902;2023-06-24T04:32:33;6.27;;;5.10;;
8927;SDS011;4499;48.304;11.902;2023-06-24T04:35:01;6.17;;;4.90;;
8927;SDS011;4499;48.304;11.902;2023-06-24T04:37:31;5.87;;;5.17;;
8927;SDS011;4499;48.304;11.902;2023-06-24T04:40:00;8.70;;;5.80;;
8927;SDS011;4499;48.304;11.902;2023-06-24T04:42:28;5.70;;;5.10;;
8927;SDS011;4499;48.304;11.902;2023-06-24T04:44:56;6.73;;;5.30;;
8927;SDS011;4499;48.304;11.902;2023-06-24T04:47:24;6.60;;;4.97;;
8927;SDS011;4499;48.304;11.902;2023-06-24T04:49:52;6.73;;;5.50;;
8927;SDS011;4499;48.304;11.902;2023-06-24T04:52:21;6.90;;;5.43;;
8927;SDS011;4499;48.304;11.902;2023-06-24T04:54:52;5.50;;;4.90;;
8927;SDS011;4499;48.304;11.902;2023-06-24T04:57:23;7.47;;;4.57;;
8927;SDS011;4499;48.304;11.902;2023-06-24T04:59:53;6.27;;;4.70;;
8927;SDS011;4499;48.304;11.902;2023-06-24T05:02:22;5.77;;;4.70;;
8927;SDS011;4499;48.304;11.902;2023-06-24T05:04:51;5.93;;;4.73;;
8927;SDS011;4499;48.304;11.902;2023-06-24T05:07:19;5.90;;;4.93;;
8927;SDS011;4499;48.304;11.902;2023-06-24T05:09:48;6.53;;;5.17;;
8927;SDS011;4499;48.304;11.902;2023-06-24T05:12:18;6.03;;;4.90;;
8927;SDS011;4499;48.304;11.902;2023-06-24T05:14:49;6.47;;;4.80;;
8927;SDS011;4499;48.304;11.902;2023-06-24T05:17:18;6.07;;;4.80;;
8927;SDS011;4499;48.304;11.902;2023-06-24T05:19:46;5.07;;;4.40;;
8927;SDS011;4499;48.304;11.902;2023-06-24T05:22:14;5.70;;;4.70;;
8927;SDS011;4499;48.304;11.902;2023-06-24T05:24:42;4.97;;;4.47;;
8927;SDS011;4499;48.304;11.902;2023-06-24T05:27:10;5.37;;;4.60;;
8927;SDS011;4499;48.304;11.902;2023-06-24T05:29:39;5.00;;;4.50;;
8927;SDS011;4499;48.304;11.902;2023-06-24T05:32:08;6.27;;;4.60;;
8927;SDS011;4499;48.304;11.902;2023-06-24T05:34:36;4.50;;;4.10;;
8927;SDS011;4499;48.304;11.902;2023-06-24T05:37:04;5.90;;;4.33;;
8927;SDS011;4499;48.304;11.902;2023-06-24T05:39:32;6.07;;;4.40;;
8927;SDS011;4499;48.304;11.902;2023-06-24T05:42:00;4.70;;;4.07;;
8927;SDS011;4499;48.304;11.902;2023-06-24T05:44:28;5.40;;;4.37;;
8927;SDS011;4499;48.304;11.902;2023-06-24T05:46:57;5.37;;;4.67;;
8927;SDS011;4499;48.304;11.902;2023-06-24T05:49:25;5.80;;;4.40;;
8927;SDS011;4499;48.304;11.902;2023-06-24T05:51:54;5.70;;;4.33;;
8927;SDS011;4499;48.304;11.902;2023-06-24T05:54:22;4.83;;;4.30;;
8927;SDS011;4499;48.304;11.902;2023-06-24T05:56:50;4.37;;;3.90;;
8927;SDS011;4499;48.304;11.902;2023-06-24T05:59:18;4.17;;;3.77;;
8927;SDS011;4499;48.304;11.902;2023-06-24T06:01:46;4.80;;;4.00;;
8927;SDS011;4499;48.304;11.902;2023-06-24T06:04:15;5.43;;;4.00;;
8927;SDS011;4499;48.304;11.902;2023-06-24T06:06:44;4.73;;;4.10;;
8927;SDS011;4499;48.304;11.902;2023-06-24T06:09:12;5.47;;;4.20;;
8927;SDS011;4499;48.304;11.902;2023-06-24T06:11:40;4.70;;;4.10;;
8927;SDS011;4499;48.304;11.902;2023-06-24T06:14:08;5.23;;;3.90;;
8927;SDS011;4499;48.304;11.902;2023-06-24T06:16:36;4.43;;;4.03;;
8927;SDS011;4499;48.304;11.902;2023-06-24T06:19:04;4.60;;;3.97;;
8927;SDS011;4499;48.304;11.902;2023-06-24T06:21:36;5.10;;;4.47;;
8927;SDS011;4499;48.304;11.902;2023-06-24T06:24:05;5.10;;;4.40;;
8927;SDS011;4499;48.304;11.902;2023-06-24T06:26:33;5.03;;;4.53;;
8927;SDS011;4499;48.304;11.902;2023-06-24T06:29:01;4.37;;;3.97;;
8927;SDS011;4499;48.304;11.902;2023-06-24T06:31:29;5.93;;;4.10;;
8927;SDS011;4499;48.304;11.902;2023-06-24T06:33:57;5.80;;;4.50;;
8927;SDS011;4499;48.304;11.902;2023-06-24T06:36:25;5.83;;;4.70;;
8927;SDS011;4499;48.304;11.902;2023-06-24T06:38:55;8.07;;;4.53;;
8927;SDS011;4499;48.304;11.902;2023-06-24T06:41:23;6.57;;;4.43;;
8927;SDS011;4499;48.304;11.902;2023-06-24T06:43:51;5.00;;;4.47;;
8927;SDS011;4499;48.304;11.902;2023-06-24T06:46:19;5.13;;;4.13;;
8927;SDS011;4499;48.304;11.902;2023-06-24T06:48:48;5.70;;;4.80;;
8927;SDS011;4499;48.304;11.902;2023-06-24T06:51:16;5.90;;;4.67;;
8927;SDS011;4499;48.304;11.902;2023-06-24T06:53:46;6.50;;;4.90;;
8927;SDS011;4499;48.304;11.902;2023-06-24T06:56:21;5.20;;;4.67;;
8927;SDS011;4499;48.304;11.902;2023-06-24T06:58:50;7.00;;;4.90;;
8927;SDS011;4499;48.304;11.902;2023-06-24T07:01:19;4.93;;;4.20;;
8927;SDS011;4499;48.304;11.902;2023-06-24T07:03:48;5.90;;;5.00;;
8927;SDS011;4499;48.304;11.902;2023-06-24T07:06:17;4.63;;;3.90;;
8927;SDS011;4499;48.304;11.902;2023-06-24T07:08:46;4.90;;;4.40;;
8927;SDS011;4499;48.304;11.902;2023-06-24T07:11:14;4.70;;;4.20;;
8927;SDS011;4499;48.304;11.902;2023-06-24T07:13:43;5.17;;;3.90;;
8927;SDS011;4499;48.304;11.902;2023-06-24T07:16:12;5.90;;;4.27;;
8927;SDS011;4499;48.304;11.902;2023-06-24T07:18:40;4.33;;;3.80;;
8927;SDS011;4499;48.304;11.902;2023-06-24T07:21:08;4.40;;;4.00;;
8927;SDS011;4499;48.304;11.902;2023-06-24T07:23:36;5.13;;;3.90;;
8927;SDS011;4499;48.304;11.902;2023-06-24T07:26:04;4.43;;;4.00;;
8927;SDS011;4499;48.304;11.902;2023-06-24T07:28:32;4.77;;;4.03;;
8927;SDS011;4499;48.304;11.902;2023-06-24T07:31:02;4.33;;;3.67;;
8927;SDS011;4499;48.304;11.902;2023-06-24T07:33:31;4.67;;;3.70;;
8927;SDS011;4499;48.304;11.902;2023-06-24T07:35:59;4.77;;;3.60;;
8927;SDS011;4499;48.304;11.902;2023-06-24T07:38:28;4.50;;;3.73;;
8927;SDS011;4499;48.304;11.902;2023-06-24T07:40:56;3.57;;;3.27;;
8927;SDS011;4499;48.304;11.902;2023-06-24T07:43:24;4.10;;;3.30;;
8927;SDS011;4499;48.304;11.902;2023-06-24T07:45:52;3.80;;;3.10;;
8927;SDS011;4499;48.304;11.902;2023-06-24T07:48:22;3.10;;;2.80;;
8927;SDS011;4499;48.304;11.902;2023-06-24T07:50:50;4.07;;;2.93;;
8927;SDS011;4499;48.304;11.902;2023-06-24T07:53:18;3.03;;;2.63;;
8927;SDS011;4499;48.304;11.902;2023-06-24T07:55:46;4.50;;;2.97;;
8927;SDS011;4499;48.304;11.902;2023-06-24T07:58:14;2.83;;;2.50;;
8927;SDS011;4499;48.304;11.902;2023-06-24T08:00:42;3.63;;;2.53;;
8927;SDS011;4499;48.304;11.902;2023-06-24T08:03:11;2.87;;;2.47;;
8927;SDS011;4499;48.304;11.902;2023-06-24T08:05:41;2.20;;;2.00;;
8927;SDS011;4499;48.304;11.902;2023-06-24T08:08:09;3.20;;;2.80;;
8927;SDS011;4499;48.304;11.902;2023-06-24T08:10:37;7.50;;;2.87;;
8927;SDS011;4499;48.304;11.902;2023-06-24T08:13:05;2.43;;;2.23;;
8927;SDS011;4499;48.304;11.902;2023-06-24T08:15:34;3.03;;;2.33;;
8927;SDS011;4499;48.304;11.902;2023-06-24T08:18:06;2.65;;;2.40;;
8927;SDS011;4499;48.304;11.902;2023-06-24T08:20:34;3.88;;;2.40;;
8927;SDS011;4499;48.304;11.902;2023-06-24T08:23:03;2.58;;;2.20;;
8927;SDS011;4499;48.304;11.902;2023-06-24T08:25:31;3.28;;;2.72;;
8927;SDS011;4499;48.304;11.902;2023-06-24T08:28:00;3.10;;;2.80;;
8927;SDS011;4499;48.304;11.902;2023-06-24T08:30:28;3.17;;;2.65;;
8927;SDS011;4499;48.304;11.902;2023-06-24T08:32:56;3.17;;;2.88;;
8927;SDS011;4499;48.304;11.902;2023-06-24T08:35:24;2.67;;;2.47;;
8927;SDS011;4499;48.304;11.902;2023-06-24T08:37:53;3.17;;;2.88;;
8927;SDS011;4499;48.304;11.902;2023-06-24T08:40:22;3.05;;;2.70;;
8927;SDS011;4499;48.304;11.902;2023-06-24T08:42:50;3.13;;;2.80;;
8927;SDS011;4499;48.304;11.902;2023-06-24T08:45:18;3.17;;;2.88;;
8927;SDS011;4499;48.304;11.902;2023-06-24T08:47:46;3.28;;;2.95;;
8927;SDS011;4499;48.304;11.902;2023-06-24T08:50:17;4.28;;;2.90;;
8927;SDS011;4499;48.304;11.902;2023-06-24T08:52:48;3.00;;;2.70;;
8927;SDS011;4499;48.304;11.902;2023-06-24T08:55:19;3.17;;;2.78;;
8927;SDS011;4499;48.304;11.902;2023-06-24T08:57:54;3.92;;;3.00;;
8927;SDS011;4499;48.304;11.902;2023-06-24T09:00:22;3.17;;;2.83;;
8927;SDS011;4499;48.304;11.902;2023-06-24T09:02:50;4.65;;;3.33;;
8927;SDS011;4499;48.304;11.902;2023-06-24T09:05:18;3.03;;;2.83;;
8927;SDS011;4499;48.304;11.902;2023-06-24T09:07:47;3.58;;;3.10;;
8927;SDS011;4499;48.304;11.902;2023-06-24T09:10:29;3.30;;;3.00;;
8927;SDS011;4499;48.304;11.902;2023-06-24T09:12:59;4.00;;;3.30;;
8927;SDS011;4499;48.304;11.902;2023-06-24T09:15:31;3.60;;;3.30;;
8927;SDS011;4499;48.304;11.902;2023-06-24T09:18:00;5.15;;;3.53;;
8927;SDS011;4499;48.304;11.902;2023-06-24T09:20:29;6.18;;;3.60;;
8927;SDS011;4499;48.304;11.902;2023-06-24T09:22:59;4.60;;;3.85;;
8927;SDS011;4499;48.304;11.902;2023-06-24T09:25:28;3.92;;;3.53;;
8927;SDS011;4499;48.304;11.902;2023-06-24T09:27:58;5.68;;;4.07;;
8927;SDS011;4499;48.304;11.902;2023-06-24T09:30:26;5.07;;;3.97;;
8927;SDS011;4499;48.304;11.902;2023-06-24T09:32:55;4.03;;;3.63;;
8927;SDS011;4499;48.304;11.902;2023-06-24T09:35:24;4.88;;;3.80;;
8927;SDS011;4499;48.304;11.902;2023-06-24T09:37:53;4.95;;;3.92;;
8927;SDS011;4499;48.304;11.902;2023-06-24T09:40:22;5.03;;;3.90;;
8927;SDS011;4499;48.304;11.902;2023-06-24T09:42:53;3.88;;;3.55;;
8927;SDS011;4499;48.304;11.902;2023-06-24T09:45:23;4.57;;;3.88;;
8927;SDS011;4499;48.304;11.902;2023-06-24T09:47:52;4.10;;;3.40;;
8927;SDS011;4499;48.304;11.902;2023-06-24T09:50:20;4.20;;;3.80;;
8927;SDS011;4499;48.304;11.902;2023-06-24T09:52:49;6.13;;;3.70;;
8927;SDS011;4499;48.304;11.902;2023-06-24T09:55:18;4.03;;;3.65;;
8927;SDS011;4499;48.304;11.902;2023-06-24T09:57:47;3.95;;;3.55;;
8927;SDS011;4499;48.304;11.902;2023-06-24T10:00:19;3.75;;;3.45;;
8927;SDS011;4499;48.304;11.902;2023-06-24T10:02:48;4.43;;;3.60;;
8927;SDS011;4499;48.304;11.902;2023-06-24T10:05:17;4.40;;;3.90;;
8927;SDS011;4499;48.304;11.902;2023-06-24T10:07:45;3.80;;;3.30;;
8927;SDS011;4499;48.304;11.902;2023-06-24T10:10:13;4.00;;;3.65;;
8927;SDS011;4499;48.304;11.902;2023-06-24T10:12:42;8.68;;;4.70;;
8927;SDS011;4499;48.304;11.902;2023-06-24T10:15:11;4.30;;;3.60;;
8927;SDS011;4499;48.304;11.902;2023-06-24T10:17:40;5.88;;;4.10;;
8927;SDS011;4499;48.304;11.902;2023-06-24T10:20:09;6.55;;;4.38;;
8927;SDS011;4499;48.304;11.902;2023-06-24T10:22:37;6.35;;;4.28;;
8927;SDS011;4499;48.304;11.902;2023-06-24T10:25:06;4.78;;;3.60;;
8927;SDS011;4499;48.304;11.902;2023-06-24T10:27:38;3.78;;;3.22;;
8927;SDS011;4499;48.304;11.902;2023-06-24T10:30:09;3.60;;;3.30;;
8927;SDS011;4499;48.304;11.902;2023-06-24T10:32:46;3.58;;;3.00;;
8927;SDS011;4499;48.304;11.902;2023-06-24T10:35:23;4.18;;;2.88;;
8927;SDS011;4499;48.304;11.902;2023-06-24T10:37:53;4.05;;;3.17;;
8927;SDS011;4499;48.304;11.902;2023-06-24T10:40:36;3.08;;;2.65;;
8927;SDS011;4499;48.304;11.902;2023-06-24T10:45:56;3.47;;;3.00;;
8927;SDS011;4499;48.304;11.902;2023-06-24T10:48:27;3.90;;;3.50;;
8927;SDS011;4499;48.304;11.902;2023-06-24T10:50:55;3.40;;;3.10;;
8927;SDS011;4499;48.304;11.902;2023-06-24T10:53:23;4.28;;;3.40;;
8927;SDS011;4499;48.304;11.902;2023-06-24T10:55:51;4.38;;;3.67;;
8927;SDS011;4499;48.304;11.902;2023-06-24T10:58:19;4.05;;;3.67;;
8927;SDS011;4499;48.304;11.902;2023-06-24T11:00:47;3.97;;;3.60;;
8927;SDS011;4499;48.304;11.902;2023-06-24T11:03:17;2.92;;;2.72;;
8927;SDS011;4499;48.304;11.902;2023-06-24T11:05:48;4.97;;;2.90;;
8927;SDS011;4499;48.304;11.902;2023-06-24T11:08:16;5.60;;;3.35;;
8927;SDS011;4499;48.304;11.902;2023-06-24T11:10:44;4.72;;;4.10;;
8927;SDS011;4499;48.304;11.902;2023-06-24T11:13:13;4.57;;;3.50;;
8927;SDS011;4499;48.304;11.902;2023-06-24T11:15:42;3.88;;;3.47;;
8927;SDS011;4499;48.304;11.902;2023-06-24T11:18:10;4.13;;;3.27;;
8927;SDS011;4499;48.304;11.902;2023-06-24T11:20:39;5.80;;;3.60;;
8927;SDS011;4499;48.304;11.902;2023-06-24T11:23:09;4.47;;;3.30;;
8927;SDS011;4499;48.304;11.902;2023-06-24T11:25:41;4.60;;;3.70;;
8927;SDS011;4499;48.304;11.902;2023-06-24T11:28:13;4.90;;;3.63;;
8927;SDS011;4499;48.304;11.902;2023-06-24T11:30:46;3.80;;;3.30;;
8927;SDS011;4499;48.304;11.902;2023-06-24T11:33:25;3.83;;;3.13;;
8927;SDS011;4499;48.304;11.902;2023-06-24T11:35:54;4.87;;;3.43;;
8927;SDS011;4499;48.304;11.902;2023-06-24T11:38:23;3.80;;;3.40;;
8927;SDS011;4499;48.304;11.902;2023-06-24T11:40:58;3.60;;;3.10;;
8927;SDS011;4499;48.304;11.902;2023-06-24T11:43:26;3.50;;;3.20;;
8927;SDS011;4499;48.304;11.902;2023-06-24T11:45:55;3.70;;;3.40;;
8927;SDS011;4499;48.304;11.902;2023-06-24T11:48:26;4.27;;;3.50;;
8927;SDS011;4499;48.304;11.902;2023-06-24T11:50:55;5.03;;;3.70;;
8927;SDS011;4499;48.304;11.902;2023-06-24T11:53:30;4.57;;;3.50;;
8927;SDS011;4499;48.304;11.902;2023-06-24T11:56:07;4.63;;;3.77;;
8927;SDS011;4499;48.304;11.902;2023-06-24T11:58:35;3.80;;;3.50;;
8927;SDS011;4499;48.304;11.902;2023-06-24T12:01:03;4.63;;;3.70;;
8927;SDS011;4499;48.304;11.902;2023-06-24T12:03:34;3.87;;;3.47;;
8927;SDS011;4499;48.304;11.902;2023-06-24T12:06:02;6.10;;;4.10;;
8927;SDS011;4499;48.304;11.902;2023-06-24T12:08:32;5.53;;;3.30;;
8927;SDS011;4499;48.304;11.902;2023-06-24T12:11:17;4.67;;;4.10;;
8927;SDS011;4499;48.304;11.902;2023-06-24T12:13:45;4.60;;;3.40;;
8927;SDS011;4499;48.304;11.902;2023-06-24T12:16:13;4.43;;;3.33;;
8927;SDS011;4499;48.304;11.902;2023-06-24T12:18:41;4.00;;;3.60;;
8927;SDS011;4499;48.304;11.902;2023-06-24T12:21:09;4.97;;;3.77;;
8927;SDS011;4499;48.304;11.902;2023-06-24T12:23:39;4.20;;;3.80;;
8927;SDS011;4499;48.304;11.902;2023-06-24T12:26:07;4.40;;;3.83;;
8927;SDS011;4499;48.304;11.902;2023-06-24T12:28:35;4.20;;;3.70;;
8927;SDS011;4499;48.304;11.902;2023-06-24T12:31:04;4.07;;;3.53;;
8927;SDS011;4499;48.304;11.902;2023-06-24T12:33:32;6.30;;;3.90;;
8927;SDS011;4499;48.304;11.902;2023-06-24T12:36:00;4.90;;;4.00;;
8927;SDS011;4499;48.304;11.902;2023-06-24T12:38:28;4.10;;;3.60;;
8927;SDS011;4499;48.304;11.902;2023-06-24T12:40:58;3.20;;;2.83;;
8927;SDS011;4499;48.304;11.902;2023-06-24T12:43:26;4.50;;;3.60;;
8927;SDS011;4499;48.304;11.902;2023-06-24T12:45:54;5.83;;;3.33;;
8927;SDS011;4499;48.304;11.902;2023-06-24T12:48:22;3.80;;;3.10;;
8927;SDS011;4499;48.304;11.902;2023-06-24T12:50:50;3.83;;;3.07;;
8927;SDS011;4499;48.304;11.902;2023-06-24T12:53:19;3.83;;;3.30;;
8927;SDS011;4499;48.304;11.902;2023-06-24T12:55:47;3.70;;;3.10;;
8927;SDS011;4499;48.304;11.902;2023-06-24T12:58:21;3.47;;;3.17;;
8927;SDS011;4499;48.304;11.902;2023-06-24T13:00:51;4.20;;;3.30;;
8927;SDS011;4499;48.304;11.902;2023-06-24T13:03:19;3.63;;;3.20;;
8927;SDS011;4499;48.304;11.902;2023-06-24T13:05:47;3.93;;;2.97;;
8927;SDS011;4499;48.304;11.902;2023-06-24T13:08:15;4.20;;;3.20;;
8927;SDS011;4499;48.304;11.902;2023-06-24T13:10:43;3.27;;;2.97;;
8927;SDS011;4499;48.304;11.902;2023-06-24T13:13:11;4.53;;;3.27;;
8927;SDS011;4499;48.304;11.902;2023-06-24T13:15:41;4.10;;;3.07;;
8927;SDS011;4499;48.304;11.902;2023-06-24T13:18:10;4.37;;;3.20;;
8927;SDS011;4499;48.304;11.902;2023-06-24T13:20:38;3.70;;;2.93;;
8927;SDS011;4499;48.304;11.902;2023-06-24T13:23:06;3.37;;;3.07;;
8927;SDS011;4499;48.304;11.902;2023-06-24T13:25:34;3.80;;;3.00;;
8927;SDS011;4499;48.304;11.902;2023-06-24T13:28:02;5.57;;;3.43;;
8927;SDS011;4499;48.304;11.902;2023-06-24T13:30:30;3.40;;;3.10;;
8927;SDS011;4499;48.304;11.902;2023-06-24T13:33:00;4.13;;;3.73;;
8927;SDS011;4499;48.304;11.902;2023-06-24T13:35:32;7.63;;;4.10;;
8927;SDS011;4499;48.304;11.902;2023-06-24T13:38:00;4.07;;;3.63;;
8927;SDS011;4499;48.304;11.902;2023-06-24T13:40:29;7.43;;;3.97;;
8927;SDS011;4499;48.304;11.902;2023-06-24T13:42:57;5.03;;;3.40;;
8927;SDS011;4499;48.304;11.902;2023-06-24T13:45:25;5.83;;;3.53;;
8927;SDS011;4499;48.304;11.902;2023-06-24T13:47:53;5.30;;;3.70;;
8927;SDS011;4499;48.304;11.902;2023-06-24T13:50:23;6.67;;;3.87;;
8927;SDS011;4499;48.304;11.902;2023-06-24T13:52:51;4.23;;;3.83;;
8927;SDS011;4499;48.304;11.902;2023-06-24T13:55:20;6.37;;;3.77;;
8927;SDS011;4499;48.304;11.902;2023-06-24T13:57:48;4.03;;;3.57;;
8927;SDS011;4499;48.304;11.902;2023-06-24T14:00:16;4.20;;;3.43;;
8927;SDS011;4499;48.304;11.902;2023-06-24T14:02:45;4.13;;;3.43;;
8927;SDS011;4499;48.304;11.902;2023-06-24T14:05:13;3.70;;;3.30;;
8927;SDS011;4499;48.304;11.902;2023-06-24T14:07:43;4.03;;;3.57;;
8927;SDS011;4499;48.304;11.902;2023-06-24T14:10:11;5.03;;;3.40;;
8927;SDS011;4499;48.304;11.902;2023-06-24T14:12:39;3.50;;;3.20;;
8927;SDS011;4499;48.304;11.902;2023-06-24T14:15:09;5.00;;;3.37;;
8927;SDS011;4499;48.304;11.902;2023-06-24T14:17:37;3.83;;;3.10;;
8927;SDS011;4499;48.304;11.902;2023-06-24T14:20:07;5.70;;;3.53;;
8927;SDS011;4499;48.304;11.902;2023-06-24T14:22:36;4.43;;;3.47;;
8927;SDS011;4499;48.304;11.902;2023-06-24T14:25:06;3.40;;;3.07;;
8927;SDS011;4499;48.304;11.902;2023-06-24T14:27:34;4.57;;;3.20;;
8927;SDS011;4499;48.304;11.902;2023-06-24T14:30:03;3.73;;;2.90;;
8927;SDS011;4499;48.304;11.902;2023-06-24T14:32:32;5.50;;;2.97;;
8927;SDS011;4499;48.304;11.902;2023-06-24T14:35:00;4.63;;;3.70;;
8927;SDS011;4499;48.304;11.902;2023-06-24T14:37:29;3.90;;;3.07;;
8927;SDS011;4499;48.304;11.902;2023-06-24T14:39:57;3.40;;;3.10;;
8927;SDS011;4499;48.304;11.902;2023-06-24T14:42:26;4.10;;;3.00;;
8927;SDS011;4499;48.304;11.902;2023-06-24T14:44:54;3.43;;;3.13;;
8927;SDS011;4499;48.304;11.902;2023-06-24T14:47:22;4.10;;;3.23;;
8927;SDS011;4499;48.304;11.902;2023-06-24T14:49:51;3.83;;;3.40;;
8927;SDS011;4499;48.304;11.902;2023-06-24T14:52:19;3.80;;;3.30;;
8927;SDS011;4499;48.304;11.902;2023-06-24T14:54:47;3.83;;;3.40;;
8927;SDS011;4499;48.304;11.902;2023-06-24T14:57:15;3.73;;;3.20;;
8927;SDS011;4499;48.304;11.902;2023-06-24T14:59:45;4.73;;;3.60;;
8927;SDS011;4499;48.304;11.902;2023-06-24T15:02:13;3.83;;;3.10;;
8927;SDS011;4499;48.304;11.902;2023-06-24T15:04:41;3.67;;;3.30;;
8927;SDS011;4499;48.304;11.902;2023-06-24T15:07:09;3.50;;;3.20;;
8927;SDS011;4499;48.304;11.902;2023-06-24T15:09:37;3.67;;;3.23;;
8927;SDS011;4499;48.304;11.902;2023-06-24T15:12:06;4.67;;;3.20;;
8927;SDS011;4499;48.304;11.902;2023-06-24T15:14:34;3.50;;;3.20;;
8927;SDS011;4499;48.304;11.902;2023-06-24T15:17:04;3.50;;;3.10;;